| Time | Avg. Air Temp | Dew Point | Avg. Rel Humidity | Avg. 2 Min Wind Speed | Max Gust Velocity | MGV Time | MGV Direction | Avg. Spot Wind Velocity |
|---|---|---|---|---|---|---|---|---|
| 2026-09-01 02:15:00 | 7° C | 5° C | 86% | 15 km/h | 23 km/h | 02:15:00 | S | 16 km/h |
| 01:15:00 | 7° C | 5° C | 85% | 22 km/h | 26 km/h | 01:12:00 | S | 21 km/h |
| 00:15:00 | 7° C | 5° C | 86% | 21 km/h | 27 km/h | 00:11:00 | SE | 23 km/h |
| 23:15:00 | 7° C | 5° C | 89% | 22 km/h | 37 km/h | 23:11:00 | SE | 25 km/h |
| 22:15:00 | 7° C | 5° C | 89% | 18 km/h | 31 km/h | 22:13:00 | SE | 19 km/h |
| 21:15:00 | 7° C | 5° C | 89% | 21 km/h | 25 km/h | 21:12:00 | SE | 22 km/h |
| 20:15:00 | 6° C | 5° C | 89% | 14 km/h | 21 km/h | 20:14:00 | SE | 13 km/h |
| 19:15:00 | 6° C | 5° C | 91% | 15 km/h | 21 km/h | 19:14:00 | SE | 15 km/h |
| 18:15:00 | 7° C | 5° C | 89% | 15 km/h | 19 km/h | 18:13:00 | S | 13 km/h |
| 17:15:00 | 8° C | 5° C | 89% | 7 km/h | 16 km/h | 17:12:00 | SE | 6 km/h |
| 16:15:00 | 7° C | 7° C | 96% | 9 km/h | 15 km/h | 16:13:00 | S | 9 km/h |
| 15:15:00 | 7° C | 6° C | 99% | 5 km/h | 8 km/h | 15:14:00 | E | 4 km/h |
| 14:15:00 | 6° C | 6° C | 100% | 3 km/h | 14 km/h | 14:12:00 | SW | 4 km/h |
| 13:15:00 | 5° C | 5° C | 100% | 9 km/h | 15 km/h | 13:15:00 | S | 8 km/h |
| 12:15:00 | 4° C | 4° C | 100% | 12 km/h | 14 km/h | 12:14:00 | SE | 9 km/h |
| 11:15:00 | 4° C | 5° C | 100% | 10 km/h | 21 km/h | 11:15:00 | SE | 13 km/h |
| 10:15:00 | 4° C | 4° C | 100% | 13 km/h | 17 km/h | 10:12:00 | SE | 11 km/h |
| 09:15:00 | 3° C | 3° C | 100% | 10 km/h | 20 km/h | 09:12:00 | SE | 12 km/h |
| 08:15:00 | 2° C | 2° C | 100% | 18 km/h | 22 km/h | 08:11:00 | S | 19 km/h |
| 07:15:00 | 3° C | 2° C | 100% | 7 km/h | 11 km/h | 07:13:00 | SE | 8 km/h |
| 06:15:00 | 3° C | 3° C | 100% | 5 km/h | 7 km/h | 06:15:00 | S | 4 km/h |
| 05:15:00 | 3° C | 3° C | 100% | 5 km/h | 6 km/h | 05:14:00 | W | 5 km/h |
| 04:15:00 | 3° C | 3° C | 100% | 11 km/h | 14 km/h | 04:11:00 | SW | 12 km/h |
| 03:15:00 | 3° C | 3° C | 100% | 15 km/h | 16 km/h | 03:13:00 | SW | 14 km/h |
Subpeak Weather
| Time | Avg. Air Temp | Dew Point | Avg. Rel Humidity | Avg. 2 Min Wind Speed | Max Gust Velocity | MGV Time | MGV Direction | Avg. Spot Wind Velocity |
|---|---|---|---|---|---|---|---|---|
| 2026-09-01 02:15:00 | 7° C | 5° C | 86% | 15 km/h | 23 km/h | 02:15:00 | S | 16 km/h |
| 02:10:00 | 7° C | 5° C | 85% | 17 km/h | 22 km/h | 02:07:00 | S | 18 km/h |
| 02:05:00 | 7° C | 4° C | 82% | 17 km/h | 22 km/h | 02:04:00 | S | 17 km/h |
| 02:00:00 | 7° C | 4° C | 84% | 17 km/h | 22 km/h | 01:56:00 | S | 18 km/h |
| 01:55:00 | 7° C | 5° C | 83% | 19 km/h | 22 km/h | 01:55:00 | S | 19 km/h |
| 01:50:00 | 7° C | 5° C | 84% | 22 km/h | 24 km/h | 01:49:00 | S | 21 km/h |
| 01:45:00 | 7° C | 4° C | 84% | 18 km/h | 23 km/h | 01:43:00 | S | 20 km/h |
| 01:40:00 | 7° C | 5° C | 85% | 17 km/h | 25 km/h | 01:38:00 | S | 20 km/h |
| 01:35:00 | 7° C | 5° C | 85% | 21 km/h | 26 km/h | 01:32:00 | S | 21 km/h |
| 01:30:00 | 7° C | 5° C | 85% | 20 km/h | 29 km/h | 01:27:00 | SE | 21 km/h |
| 01:25:00 | 7° C | 5° C | 85% | 19 km/h | 26 km/h | 01:22:00 | S | 21 km/h |
| 01:20:00 | 7° C | 5° C | 85% | 17 km/h | 26 km/h | 01:17:00 | SE | 20 km/h |
| 01:15:00 | 7° C | 5° C | 85% | 22 km/h | 26 km/h | 01:12:00 | S | 21 km/h |




